createdAt,value
2022-08-06T00:00:03.120Z,24.61
2022-08-06T00:02:22.596Z,24.54
2022-08-06T00:04:52.776Z,24.45
2022-08-06T00:07:22.722Z,24.34
2022-08-06T00:10:00.000Z,24.36
2022-08-06T00:12:32.400Z,24.33
2022-08-06T00:15:00.881Z,24.15
2022-08-06T00:17:31.763Z,24.04
2022-08-06T00:20:01.023Z,23.96
2022-08-06T00:22:29.023Z,23.86
2022-08-06T00:24:56.762Z,23.78
2022-08-06T00:27:29.178Z,23.70
2022-08-06T00:30:05.978Z,23.64
2022-08-06T00:32:33.343Z,23.59
2022-08-06T00:35:04.362Z,23.55
2022-08-06T00:37:57.172Z,23.50
2022-08-06T00:40:24.658Z,23.47
2022-08-06T00:42:54.626Z,23.36
2022-08-06T00:45:24.261Z,23.27
2022-08-06T00:48:02.812Z,23.21
2022-08-06T00:50:30.863Z,23.38
2022-08-06T00:52:58.492Z,23.40
2022-08-06T00:55:32.021Z,23.30
2022-08-06T00:58:05.227Z,23.22
2022-08-06T01:00:36.967Z,23.12
2022-08-06T01:03:27.355Z,23.14
2022-08-06T01:06:53.228Z,23.04
2022-08-06T01:08:42.167Z,22.93
2022-08-06T01:11:09.873Z,22.96
2022-08-06T01:14:01.813Z,22.85
2022-08-06T01:16:45.406Z,22.77
2022-08-06T01:21:22.110Z,22.73
2022-08-06T01:22:40.163Z,22.78
2022-08-06T01:25:15.151Z,22.78
2022-08-06T01:28:12.346Z,22.59
2022-08-06T01:30:47.780Z,22.71
2022-08-06T01:33:24.977Z,22.68
2022-08-06T01:36:03.121Z,22.69
2022-08-06T01:38:36.416Z,22.54
2022-08-06T01:41:08.310Z,22.61
2022-08-06T01:44:07.529Z,22.55
2022-08-06T01:46:25.473Z,22.48
2022-08-06T01:48:56.551Z,22.48
2022-08-06T01:52:14.427Z,22.47
2022-08-06T01:54:15.250Z,22.50
2022-08-06T01:56:57.896Z,22.53
2022-08-06T01:59:32.126Z,22.36
2022-08-06T02:02:01.413Z,22.42
2022-08-06T02:04:39.271Z,22.30
2022-08-06T02:08:04.118Z,22.29
2022-08-06T02:09:57.975Z,22.22
2022-08-06T02:12:27.018Z,22.15
2022-08-06T02:14:58.041Z,22.18
2022-08-06T02:18:04.620Z,22.09
2022-08-06T02:20:36.821Z,22.10
2022-08-06T02:23:08.619Z,22.02
2022-08-06T02:25:41.421Z,21.92
2022-08-06T02:28:10.925Z,21.91
2022-08-06T02:30:42.675Z,21.99
2022-08-06T02:33:10.500Z,21.92
2022-08-06T02:35:57.852Z,21.72
2022-08-06T02:38:36.809Z,21.57
2022-08-06T02:41:22.149Z,21.56
2022-08-06T02:43:55.480Z,21.55
2022-08-06T02:46:39.376Z,21.62
2022-08-06T02:49:25.293Z,21.46
2022-08-06T02:52:17.760Z,21.42
2022-08-06T02:54:53.378Z,21.29
2022-08-06T02:57:48.349Z,21.20
2022-08-06T03:00:18.953Z,21.22
2022-08-06T03:02:48.165Z,21.16
2022-08-06T03:05:19.763Z,21.17
2022-08-06T03:08:10.743Z,21.12
2022-08-06T03:10:38.362Z,21.21
2022-08-06T03:13:10.951Z,21.30
2022-08-06T03:15:58.206Z,21.21
2022-08-06T03:18:26.808Z,21.16
2022-08-06T03:20:56.004Z,21.29
2022-08-06T03:23:26.834Z,21.13
2022-08-06T03:25:55.244Z,21.09
2022-08-06T03:28:22.844Z,21.02
2022-08-06T03:30:55.509Z,21.05
2022-08-06T03:33:29.098Z,21.06
2022-08-06T03:36:00.812Z,21.10
2022-08-06T03:38:33.582Z,21.08
2022-08-06T03:41:01.927Z,21.03
2022-08-06T03:43:45.809Z,21.15
2022-08-06T03:46:28.498Z,21.06
2022-08-06T03:48:59.678Z,21.05
2022-08-06T03:51:50.365Z,21.13
2022-08-06T03:54:30.403Z,21.03
2022-08-06T03:57:08.119Z,20.93
2022-08-06T03:59:43.625Z,20.95
2022-08-06T04:02:36.908Z,21.05
2022-08-06T04:05:15.558Z,21.05
2022-08-06T04:07:54.527Z,20.99
2022-08-06T04:10:32.941Z,20.94
2022-08-06T04:13:38.253Z,20.92
2022-08-06T04:15:51.277Z,20.93
2022-08-06T04:18:24.980Z,20.81
2022-08-06T04:21:05.191Z,20.91
2022-08-06T04:23:42.756Z,20.87
2022-08-06T04:26:14.788Z,20.83
2022-08-06T04:28:57.179Z,20.58
2022-08-06T04:32:13.551Z,20.55
2022-08-06T04:34:16.861Z,20.51
2022-08-06T04:36:53.895Z,20.52
2022-08-06T04:39:37.831Z,20.73
2022-08-06T04:42:12.851Z,20.62
2022-08-06T04:44:44.776Z,20.53
2022-08-06T04:47:15.082Z,20.45
2022-08-06T04:49:58.349Z,20.47
2022-08-06T04:52:36.085Z,20.40
2022-08-06T04:55:24.433Z,20.33
2022-08-06T04:57:57.086Z,20.45
2022-08-06T05:00:33.576Z,20.46
2022-08-06T05:03:01.827Z,20.46
2022-08-06T05:05:31.550Z,20.54
2022-08-06T05:08:01.575Z,20.58
2022-08-06T05:10:47.588Z,20.66
2022-08-06T05:13:28.499Z,20.69
2022-08-06T05:16:07.152Z,20.70
2022-08-06T05:19:20.365Z,20.68
2022-08-06T05:22:05.359Z,20.74
2022-08-06T05:24:39.527Z,20.60
2022-08-06T05:27:11.897Z,20.69
2022-08-06T05:29:41.564Z,20.70
2022-08-06T05:32:19.500Z,20.72
2022-08-06T05:34:53.049Z,20.74
2022-08-06T05:37:26.462Z,20.71
2022-08-06T05:40:09.962Z,20.72
2022-08-06T05:42:38.811Z,20.71
2022-08-06T05:45:09.773Z,20.74
2022-08-06T05:47:55.234Z,20.75
2022-08-06T05:50:28.338Z,20.72
2022-08-06T05:53:02.814Z,20.72
2022-08-06T05:55:38.559Z,20.75
2022-08-06T05:58:08.811Z,20.83
2022-08-06T06:00:43.700Z,20.83
2022-08-06T06:03:24.539Z,20.91
2022-08-06T06:06:10.865Z,20.85
2022-08-06T06:08:55.376Z,20.80
2022-08-06T06:11:55.534Z,20.78
2022-08-06T06:14:32.498Z,20.79
2022-08-06T06:17:13.614Z,20.82
2022-08-06T06:19:54.107Z,20.87
2022-08-06T06:22:27.846Z,20.90
2022-08-06T06:25:02.553Z,20.93
2022-08-06T06:27:51.960Z,20.95
2022-08-06T06:30:40.187Z,21.02
2022-08-06T06:33:37.103Z,21.06
2022-08-06T06:36:24.031Z,21.07
2022-08-06T06:39:04.902Z,21.10
2022-08-06T06:41:44.602Z,21.14
2022-08-06T06:44:24.280Z,21.20
2022-08-06T06:47:16.312Z,21.27
2022-08-06T06:50:03.222Z,21.25
2022-08-06T06:52:35.982Z,21.24
2022-08-06T06:55:15.617Z,21.31
2022-08-06T06:57:51.704Z,21.22
2022-08-06T07:00:44.205Z,21.18
2022-08-06T07:03:09.738Z,21.19
2022-08-06T07:06:02.601Z,21.19
2022-08-06T07:08:31.803Z,21.11
2022-08-06T07:11:06.624Z,21.09
2022-08-06T07:13:47.382Z,21.05
2022-08-06T07:16:35.008Z,21.07
2022-08-06T07:19:05.186Z,21.08
2022-08-06T07:21:32.666Z,21.09
2022-08-06T07:24:08.366Z,21.09
2022-08-06T07:26:50.966Z,21.07
2022-08-06T07:29:49.599Z,21.07
2022-08-06T07:32:30.988Z,21.03
2022-08-06T07:34:56.497Z,21.03
2022-08-06T07:37:25.446Z,21.00
2022-08-06T07:39:56.737Z,20.98
2022-08-06T07:42:25.470Z,20.97
2022-08-06T07:45:01.211Z,20.96
2022-08-06T07:47:46.161Z,20.92
2022-08-06T07:50:23.777Z,20.92
2022-08-06T07:52:53.354Z,20.90
2022-08-06T07:55:26.274Z,20.88
2022-08-06T07:57:59.956Z,20.87
2022-08-06T08:00:28.995Z,20.79
2022-08-06T08:03:11.688Z,20.74
2022-08-06T08:06:03.191Z,20.67
2022-08-06T08:08:31.773Z,20.65
2022-08-06T08:11:01.583Z,20.57
2022-08-06T08:13:41.672Z,20.49
2022-08-06T08:16:20.302Z,20.41
2022-08-06T08:18:55.664Z,20.28
2022-08-06T08:21:22.957Z,20.26
2022-08-06T08:23:55.385Z,20.17
2022-08-06T08:26:25.261Z,20.12
2022-08-06T08:28:52.458Z,20.11
2022-08-06T08:31:20.891Z,20.04
2022-08-06T08:33:52.575Z,20.00
2022-08-06T08:36:22.129Z,19.97
2022-08-06T08:39:04.213Z,19.91
2022-08-06T08:41:48.159Z,19.88
2022-08-06T08:44:26.443Z,19.85
2022-08-06T08:46:58.834Z,19.81
2022-08-06T08:49:35.606Z,19.77
2022-08-06T08:52:11.609Z,19.72
2022-08-06T08:54:42.224Z,19.66
2022-08-06T08:58:40.142Z,19.61
2022-08-06T09:00:01.666Z,19.57
2022-08-06T09:02:30.953Z,19.54
2022-08-06T09:04:59.084Z,19.48
2022-08-06T09:07:35.585Z,19.38
2022-08-06T09:10:06.823Z,19.34
2022-08-06T09:12:45.478Z,19.32
2022-08-06T09:15:17.110Z,19.30
2022-08-06T09:18:12.254Z,19.25
2022-08-06T09:20:35.227Z,19.24
2022-08-06T09:23:02.490Z,19.22
2022-08-06T09:25:50.887Z,19.20
2022-08-06T09:28:36.396Z,19.19
2022-08-06T09:31:10.473Z,19.16
2022-08-06T09:34:19.010Z,19.23
2022-08-06T09:36:52.260Z,19.21
2022-08-06T09:39:45.998Z,19.17
2022-08-06T09:42:43.572Z,19.17
2022-08-06T09:45:15.106Z,19.16
2022-08-06T09:47:57.741Z,19.22
2022-08-06T09:50:38.621Z,19.21
2022-08-06T09:53:12.891Z,19.20
2022-08-06T09:55:41.665Z,19.21
2022-08-06T09:58:08.591Z,19.19
2022-08-06T10:00:38.842Z,19.19
2022-08-06T10:04:04.858Z,19.16
2022-08-06T10:06:14.513Z,19.13
2022-08-06T10:08:46.153Z,19.15
2022-08-06T10:11:41.737Z,19.15
2022-08-06T10:14:35.486Z,19.14
2022-08-06T10:17:09.107Z,19.11
2022-08-06T10:19:38.166Z,19.10
2022-08-06T10:22:10.368Z,19.11
2022-08-06T10:24:48.780Z,19.08
2022-08-06T10:27:22.579Z,19.04
2022-08-06T10:29:52.811Z,19.09
2022-08-06T10:32:35.288Z,19.11
2022-08-06T10:35:12.103Z,19.06
2022-08-06T10:37:47.899Z,19.09
2022-08-06T10:40:30.695Z,19.07
2022-08-06T10:43:00.531Z,19.09
2022-08-06T10:45:49.184Z,19.09
2022-08-06T10:48:59.387Z,19.13
2022-08-06T10:51:05.787Z,19.12
2022-08-06T10:54:01.955Z,19.12
2022-08-06T10:56:28.603Z,19.13
2022-08-06T10:59:00.554Z,19.09
2022-08-06T11:01:43.603Z,19.06
2022-08-06T11:04:44.035Z,19.05
2022-08-06T11:08:08.305Z,19.03
2022-08-06T11:10:53.483Z,18.96
2022-08-06T11:13:36.856Z,18.87
2022-08-06T11:16:04.732Z,18.83
2022-08-06T11:18:31.391Z,18.86
2022-08-06T11:21:01.356Z,18.81
2022-08-06T11:23:58.609Z,18.74
2022-08-06T11:26:36.451Z,18.76
2022-08-06T11:29:07.977Z,18.74
2022-08-06T11:31:56.412Z,18.70
2022-08-06T11:34:42.153Z,18.67
2022-08-06T11:38:02.949Z,18.67
2022-08-06T11:41:06.143Z,18.65
2022-08-06T11:44:03.251Z,18.59
2022-08-06T11:46:35.929Z,18.56
2022-08-06T11:49:06.150Z,18.54
2022-08-06T11:51:42.604Z,18.54
2022-08-06T11:54:28.352Z,18.54
2022-08-06T11:57:19.481Z,18.52
2022-08-06T12:00:08.864Z,18.49
2022-08-06T12:02:48.174Z,18.48
2022-08-06T12:05:20.005Z,18.49
2022-08-06T12:08:38.888Z,18.54
2022-08-06T12:11:22.282Z,18.57
2022-08-06T12:13:57.565Z,18.57
2022-08-06T12:16:39.891Z,18.58
2022-08-06T12:19:13.767Z,18.58
2022-08-06T12:21:44.876Z,18.59
2022-08-06T12:24:14.688Z,18.62
2022-08-06T12:26:41.464Z,18.66
2022-08-06T12:29:09.404Z,18.62
2022-08-06T12:31:44.125Z,18.58
2022-08-06T12:34:27.617Z,18.62
2022-08-06T12:36:54.897Z,18.61
2022-08-06T12:39:48.118Z,18.63
2022-08-06T12:42:53.108Z,18.65
2022-08-06T12:46:04.488Z,18.64
2022-08-06T12:48:11.189Z,18.56
2022-08-06T12:50:41.991Z,18.60
2022-08-06T12:53:11.520Z,18.66
2022-08-06T12:55:48.687Z,18.73
2022-08-06T12:58:43.083Z,18.70
2022-08-06T13:01:13.289Z,18.73
2022-08-06T13:03:49.192Z,18.73
2022-08-06T13:06:32.384Z,18.77
2022-08-06T13:09:03.647Z,18.75
2022-08-06T13:11:36.955Z,18.89
2022-08-06T13:14:17.536Z,18.91
2022-08-06T13:16:55.120Z,18.92
2022-08-06T13:19:32.450Z,19.00
2022-08-06T13:22:03.223Z,18.89
2022-08-06T13:24:35.413Z,18.74
2022-08-06T13:27:06.002Z,18.86
2022-08-06T13:30:35.833Z,18.87
2022-08-06T13:32:33.516Z,18.75
2022-08-06T13:35:11.367Z,18.71
2022-08-06T13:37:55.689Z,18.76
2022-08-06T13:40:38.390Z,18.84
2022-08-06T13:43:04.996Z,18.89
2022-08-06T13:45:56.702Z,18.80
2022-08-06T13:48:23.523Z,18.85
2022-08-06T13:50:50.333Z,18.86
2022-08-06T13:53:17.423Z,18.72
2022-08-06T13:56:02.301Z,18.66
2022-08-06T13:58:30.671Z,18.76
2022-08-06T14:00:58.013Z,18.71
2022-08-06T14:03:26.530Z,18.54
2022-08-06T14:05:53.248Z,18.67
2022-08-06T14:08:34.613Z,18.53
2022-08-06T14:11:03.035Z,18.61
2022-08-06T14:13:30.274Z,18.61
2022-08-06T14:15:57.003Z,18.66
2022-08-06T14:18:32.056Z,18.66
2022-08-06T14:21:01.662Z,18.68
2022-08-06T14:23:40.445Z,18.93
2022-08-06T14:26:14.786Z,18.93
2022-08-06T14:28:48.506Z,18.93
2022-08-06T14:31:29.662Z,18.86
2022-08-06T14:33:59.793Z,18.82
2022-08-06T14:36:29.319Z,18.81
2022-08-06T14:39:00.260Z,18.90
2022-08-06T14:42:02.042Z,18.87
2022-08-06T14:44:45.919Z,18.86
2022-08-06T14:47:56.854Z,18.87
2022-08-06T14:49:59.687Z,18.89
2022-08-06T14:52:26.452Z,18.95
2022-08-06T14:54:55.950Z,19.04
2022-08-06T14:58:03.912Z,19.06
2022-08-06T15:00:21.553Z,19.25
2022-08-06T15:02:59.812Z,19.22
2022-08-06T15:05:41.708Z,19.13
2022-08-06T15:08:13.278Z,19.23
2022-08-06T15:10:40.020Z,19.23
2022-08-06T15:13:06.935Z,19.23
2022-08-06T15:15:37.106Z,19.09
2022-08-06T15:18:40.596Z,19.17
2022-08-06T15:21:03.503Z,19.20
2022-08-06T15:23:31.131Z,19.21
2022-08-06T15:26:47.226Z,19.29
2022-08-06T15:29:10.970Z,19.17
2022-08-06T15:31:42.635Z,19.12
2022-08-06T15:34:12.418Z,19.00
2022-08-06T15:36:40.043Z,18.95
2022-08-06T15:39:52.381Z,18.95
2022-08-06T15:42:13.071Z,18.94
2022-08-06T15:44:41.391Z,19.02
2022-08-06T15:47:08.776Z,18.99
2022-08-06T15:50:02.629Z,19.13
2022-08-06T15:52:26.325Z,19.27
2022-08-06T15:54:53.716Z,19.27
2022-08-06T15:58:05.371Z,19.24
2022-08-06T16:00:17.443Z,19.19
2022-08-06T16:02:50.001Z,19.16
2022-08-06T16:05:32.287Z,19.15
2022-08-06T16:08:06.007Z,19.05
2022-08-06T16:10:32.988Z,18.96
2022-08-06T16:13:00.141Z,19.04
2022-08-06T16:15:26.883Z,19.04
2022-08-06T16:18:09.328Z,18.82
2022-08-06T16:20:43.641Z,18.90
2022-08-06T16:23:54.898Z,18.82
2022-08-06T16:26:10.013Z,18.77
2022-08-06T16:28:48.640Z,18.77
2022-08-06T16:31:16.076Z,18.74
2022-08-06T16:33:54.448Z,18.66
2022-08-06T16:36:32.217Z,18.61
2022-08-06T16:39:00.295Z,18.70
2022-08-06T16:44:17.247Z,18.78
2022-08-06T16:47:00.953Z,18.66
2022-08-06T16:50:17.683Z,18.64
2022-08-06T16:52:42.871Z,18.71
2022-08-06T16:55:08.624Z,18.79
2022-08-06T16:57:37.299Z,18.74
2022-08-06T17:00:07.312Z,18.78
2022-08-06T17:02:37.652Z,18.59
2022-08-06T17:07:59.937Z,18.60
2022-08-06T17:10:39.490Z,18.66
2022-08-06T17:13:09.400Z,18.64
2022-08-06T17:18:28.522Z,18.48
2022-08-06T17:20:56.114Z,18.50
2022-08-06T17:23:27.199Z,18.44
2022-08-06T17:26:01.182Z,18.47
2022-08-06T17:28:31.462Z,18.59
2022-08-06T17:30:58.700Z,18.50
2022-08-06T17:33:25.311Z,18.31
2022-08-06T17:36:32.282Z,18.30
2022-08-06T17:38:40.191Z,18.27
2022-08-06T17:43:56.760Z,18.37
2022-08-06T17:46:28.555Z,18.21
2022-08-06T17:49:00.357Z,18.22
2022-08-06T17:51:33.848Z,18.20
2022-08-06T17:54:26.991Z,18.21
2022-08-06T17:56:51.518Z,18.18
2022-08-06T17:59:21.929Z,18.21
2022-08-06T18:01:51.066Z,18.11
2022-08-06T18:04:22.055Z,18.09
2022-08-06T18:06:55.707Z,18.17
2022-08-06T18:10:11.755Z,18.17
2022-08-06T18:12:11.882Z,18.13
2022-08-06T18:14:38.858Z,18.10
2022-08-06T18:17:06.853Z,18.11
2022-08-06T18:19:36.601Z,18.05
2022-08-06T18:22:20.979Z,18.12
2022-08-06T18:24:50.549Z,18.07
2022-08-06T18:27:53.574Z,18.11
2022-08-06T18:30:04.844Z,18.20
2022-08-06T18:32:33.825Z,18.14
2022-08-06T18:35:04.301Z,18.09
2022-08-06T18:38:00.347Z,18.06
2022-08-06T18:40:38.956Z,18.12
2022-08-06T18:43:06.343Z,18.17
2022-08-06T18:45:37.015Z,18.14
2022-08-06T18:48:06.273Z,18.12
2022-08-06T18:50:34.591Z,18.12
2022-08-06T18:53:02.963Z,18.15
2022-08-06T18:55:53.900Z,18.12
2022-08-06T18:58:18.433Z,18.10
2022-08-06T19:00:52.622Z,18.12
2022-08-06T19:03:19.689Z,18.07
2022-08-06T19:05:51.321Z,18.01
2022-08-06T19:08:29.332Z,18.04
2022-08-06T19:11:00.900Z,18.05
2022-08-06T19:13:55.191Z,18.07
2022-08-06T19:16:19.505Z,18.11
2022-08-06T19:18:50.989Z,18.09
2022-08-06T19:21:18.121Z,18.09
2022-08-06T19:24:02.448Z,18.11
2022-08-06T19:26:31.830Z,18.14
2022-08-06T19:28:59.779Z,18.12
2022-08-06T19:31:41.915Z,18.13
2022-08-06T19:34:14.543Z,18.15
2022-08-06T19:36:43.987Z,18.11
2022-08-06T19:39:52.991Z,18.08
2022-08-06T19:42:01.237Z,18.06
2022-08-06T19:44:33.030Z,18.05
2022-08-06T19:47:06.007Z,18.05
2022-08-06T19:49:42.394Z,18.11
2022-08-06T19:52:09.988Z,18.13
2022-08-06T19:54:38.380Z,18.10
2022-08-06T19:57:13.400Z,18.08
2022-08-06T20:00:54.140Z,18.04
2022-08-06T20:02:29.462Z,17.96
2022-08-06T20:04:57.894Z,17.89
2022-08-06T20:07:27.585Z,17.92
2022-08-06T20:10:01.640Z,17.92
2022-08-06T20:12:34.982Z,17.96
2022-08-06T20:15:06.514Z,18.01
2022-08-06T20:17:49.339Z,17.95
2022-08-06T20:20:29.001Z,17.88
2022-08-06T20:22:59.250Z,17.86
2022-08-06T20:25:26.555Z,17.84
2022-08-06T20:29:07.784Z,17.82
2022-08-06T20:30:49.703Z,17.76
2022-08-06T20:33:24.383Z,17.73
2022-08-06T20:35:57.956Z,17.71
2022-08-06T20:38:40.061Z,17.70
2022-08-06T20:41:57.877Z,17.66
2022-08-06T20:44:05.422Z,17.64
2022-08-06T20:49:47.701Z,17.54
2022-08-06T20:52:17.697Z,17.48
2022-08-06T20:54:51.939Z,17.48
2022-08-06T20:57:26.570Z,17.51
2022-08-06T20:59:54.060Z,17.45
2022-08-06T21:02:25.993Z,17.46
2022-08-06T21:05:13.868Z,17.42
2022-08-06T21:07:50.860Z,17.32
2022-08-06T21:10:27.091Z,17.36
2022-08-06T21:13:02.252Z,17.39
2022-08-06T21:15:54.612Z,17.32
2022-08-06T21:18:20.740Z,17.27
2022-08-06T21:20:51.282Z,17.18
2022-08-06T21:23:21.238Z,17.14
2022-08-06T21:25:53.627Z,17.10
2022-08-06T21:28:25.918Z,17.09
2022-08-06T21:30:53.556Z,17.14
2022-08-06T21:33:20.460Z,17.12
2022-08-06T21:35:50.407Z,17.11
2022-08-06T21:38:24.628Z,17.10
2022-08-06T21:40:54.534Z,17.11
2022-08-06T21:43:29.070Z,17.20
2022-08-06T21:46:08.279Z,17.24
2022-08-06T21:48:36.148Z,17.26
2022-08-06T21:51:02.747Z,17.28
2022-08-06T21:53:48.844Z,17.17
2022-08-06T21:56:36.819Z,17.12
2022-08-06T21:59:10.293Z,17.00
2022-08-06T22:02:08.980Z,16.96
2022-08-06T22:04:38.328Z,17.09
2022-08-06T22:07:10.377Z,17.04
2022-08-06T22:09:41.013Z,17.03
2022-08-06T22:12:39.153Z,17.09
2022-08-06T22:14:58.716Z,17.17
2022-08-06T22:18:00.209Z,17.20
2022-08-06T22:20:21.818Z,17.16
2022-08-06T22:22:52.899Z,17.13
2022-08-06T22:25:22.638Z,17.05
2022-08-06T22:27:54.687Z,17.09
2022-08-06T22:30:42.607Z,17.09
2022-08-06T22:33:11.545Z,17.07
2022-08-06T22:35:57.781Z,17.07
2022-08-06T22:38:27.191Z,17.07
2022-08-06T22:40:54.706Z,17.11
2022-08-06T22:43:29.851Z,17.07
2022-08-06T22:46:09.718Z,17.02
2022-08-06T22:48:37.492Z,17.04
2022-08-06T22:51:15.729Z,17.02
2022-08-06T22:54:30.130Z,16.97
2022-08-06T22:56:36.372Z,16.95
2022-08-06T22:59:18.756Z,16.93
2022-08-06T23:02:03.443Z,16.97
2022-08-06T23:04:37.600Z,16.95
2022-08-06T23:07:09.209Z,16.92
2022-08-06T23:09:39.531Z,16.94
2022-08-06T23:12:07.540Z,16.95
2022-08-06T23:14:34.528Z,17.05
2022-08-06T23:17:06.060Z,17.02
2022-08-06T23:19:36.285Z,16.95
2022-08-06T23:22:22.947Z,16.90
2022-08-06T23:25:03.462Z,16.89
2022-08-06T23:27:46.578Z,16.87
2022-08-06T23:30:19.935Z,16.83
2022-08-06T23:32:49.002Z,16.95
2022-08-06T23:35:35.830Z,17.00
2022-08-06T23:38:30.964Z,16.89
2022-08-06T23:40:51.534Z,16.82
2022-08-06T23:43:19.597Z,16.89
2022-08-06T23:45:48.201Z,16.86
2022-08-06T23:48:16.780Z,16.92
2022-08-06T23:50:53.224Z,17.00
2022-08-06T23:54:06.123Z,17.05
2022-08-06T23:56:13.152Z,17.06
2022-08-06T23:58:48.636Z,17.11
